Time;durP1;ratioP1;P1;durP2;ratioP2;P2;SDS_P1;SDS_P2;PMS_P1;PMS_P2;Temp;Humidity;BMP_temperature;BMP_pressure;BME280_temperature;BME280_humidity;BME280_pressure;Samples;Min_cycle;Max_cycle;Signal;HPM_P1;HPM_P2
2022/12/21 00:01:15;;;;;;;12.52;2.20;;;;;;;5.34;83.56;99236.31;5037954;28;20064;-43
2022/12/21 00:03:43;;;;;;;8.75;2.28;;;;;;;5.32;83.80;99233.09;5054694;28;20051;-42
2022/12/21 00:06:11;;;;;;;13.52;3.35;;;;;;;5.30;84.01;99238.13;5048914;28;20055;-42
2022/12/21 00:08:46;;;;;;;8.25;2.28;;;;;;;5.28;84.02;99232.19;5049175;28;20048;-47
2022/12/21 00:11:14;;;;;;;5.45;2.25;;;;;;;5.26;84.05;99234.50;5050002;28;20064;-42
2022/12/21 00:13:41;;;;;;;8.25;1.70;;;;;;;5.22;84.17;99217.13;5048372;28;20071;-42
2022/12/21 00:16:14;;;;;;;12.60;1.40;;;;;;;5.21;84.17;99226.50;5049419;28;20410;-44
2022/12/21 00:18:42;;;;;;;4.75;2.45;;;;;;;5.21;84.13;99233.94;5049078;28;20105;-51
2022/12/21 00:21:14;;;;;;;10.73;1.85;;;;;;;5.19;84.45;99228.78;5050236;28;20057;-42
2022/12/21 00:23:43;;;;;;;8.32;1.58;;;;;;;5.17;84.61;99216.56;5048956;28;20052;-42
2022/12/21 00:26:12;;;;;;;10.02;2.88;;;;;;;5.16;84.41;99218.53;5048895;28;20061;-42
2022/12/21 00:28:39;;;;;;;9.82;1.60;;;;;;;5.16;84.63;99207.56;5048518;28;20040;-47
2022/12/21 00:31:11;;;;;;;9.07;1.45;;;;;;;5.16;84.63;99210.28;5026817;28;20049;-42
2022/12/21 00:33:38;;;;;;;;;;;;;;;5.15;84.64;99205.94;5046796;28;20044;-43
2022/12/21 00:36:07;;;;;;;6.65;1.60;;;;;;;5.14;84.34;99218.06;5040246;28;19921;-42
2022/12/21 00:38:34;;;;;;;8.50;2.35;;;;;;;5.13;84.60;99210.97;5031068;28;20140;-42
2022/12/21 00:41:04;;;;;;;7.28;1.10;;;;;;;5.15;84.54;99203.19;5036790;28;20052;-46
2022/12/21 00:43:33;;;;;;;5.43;1.25;;;;;;;5.18;84.43;99196.22;5049039;28;20045;-42
2022/12/21 00:46:00;;;;;;;6.18;1.90;;;;;;;5.19;84.09;99189.59;5049030;28;20095;-42
2022/12/21 00:48:28;;;;;;;7.15;1.10;;;;;;;5.18;84.16;99194.28;5047515;28;20048;-42
2022/12/21 00:51:13;;;;;;;6.07;1.30;;;;;;;5.18;84.21;99194.28;5048673;28;20055;-44
2022/12/21 00:53:40;;;;;;;6.10;1.00;;;;;;;5.19;84.02;99179.41;5043522;28;20056;-43
2022/12/21 00:56:08;;;;;;;4.13;0.98;;;;;;;5.20;84.00;99191.97;5047695;28;20422;-42
2022/12/21 00:58:35;;;;;;;4.18;0.95;;;;;;;5.22;84.01;99186.13;5031062;28;20041;-44
2022/12/21 01:01:11;;;;;;;2.72;0.93;;;;;;;5.22;84.02;99175.97;5048456;28;20505;-42
2022/12/21 01:03:39;;;;;;;4.05;0.80;;;;;;;5.24;83.74;99179.16;5041704;28;20398;-46
2022/12/21 01:06:06;;;;;;;6.28;1.23;;;;;;;5.28;83.79;99176.53;5018225;28;20376;-45
2022/12/21 01:08:32;;;;;;;4.65;0.98;;;;;;;5.29;83.70;99184.41;5048112;28;20511;-47
2022/12/21 01:11:01;;;;;;;5.15;0.82;;;;;;;5.29;83.70;99170.69;5048512;28;20466;-42
2022/12/21 01:13:29;;;;;;;3.25;0.95;;;;;;;5.29;83.55;99175.38;5045520;28;20051;-42
2022/12/21 01:15:56;;;;;;;3.17;1.17;;;;;;;5.29;83.80;99172.63;5045517;28;20537;-43
2022/12/21 01:18:24;;;;;;;5.70;0.80;;;;;;;5.27;83.58;99170.22;5046154;28;20512;-42
2022/12/21 01:20:56;;;;;;;3.20;0.90;;;;;;;5.26;83.51;99163.16;5043372;28;20056;-42
2022/12/21 01:23:23;;;;;;;4.63;1.02;;;;;;;5.24;83.53;99190.13;5041810;28;20045;-42
2022/12/21 01:25:51;;;;;;;3.78;1.05;;;;;;;5.25;83.50;99166.22;5047371;28;20376;-42
2022/12/21 01:28:18;;;;;;;4.30;1.30;;;;;;;5.22;83.28;99161.44;5028948;28;20040;-42
2022/12/21 01:30:45;;;;;;;8.93;1.35;;;;;;;5.17;83.24;99157.00;5046420;28;20486;-42
2022/12/21 01:33:17;;;;;;;7.72;1.20;;;;;;;5.14;83.25;99168.66;5046111;28;20068;-43
2022/12/21 01:35:45;;;;;;;4.43;0.82;;;;;;;5.14;83.44;99162.38;5040049;28;20049;-44
2022/12/21 01:38:12;;;;;;;5.07;0.95;;;;;;;5.13;83.52;99164.34;5045043;28;20037;-42
2022/12/21 01:40:40;;;;;;;4.05;2.15;;;;;;;5.11;83.36;99158.38;5046506;28;20045;-44
2022/12/21 01:43:18;;;;;;;4.40;0.93;;;;;;;5.08;83.59;99150.88;5043264;28;20106;-42
2022/12/21 01:45:51;;;;;;;7.97;0.82;;;;;;;5.05;83.41;99156.25;5047485;28;20048;-42
2022/12/21 01:48:19;;;;;;;4.38;1.98;;;;;;;5.03;83.40;99156.59;5046988;28;20048;-48
2022/12/21 01:50:57;;;;;;;2.90;0.82;;;;;;;5.00;83.40;99159.25;5047619;28;20541;-42
2022/12/21 01:53:48;;;;;;;3.30;0.40;;;;;;;4.99;83.43;99146.66;5038831;28;20485;-44
2022/12/21 01:56:19;;;;;;;6.90;0.70;;;;;;;4.97;83.54;99152.50;5038691;28;20107;-42
2022/12/21 01:58:46;;;;;;;6.53;2.15;;;;;;;4.94;83.37;99150.44;5046958;28;20057;-42
2022/12/21 02:01:13;;;;;;;1.73;0.75;;;;;;;4.93;83.72;99154.31;5046921;28;20080;-42
2022/12/21 02:03:46;;;;;;;3.10;1.20;;;;;;;4.91;83.57;99149.19;5054770;28;20045;-42
2022/12/21 02:06:38;;;;;;;6.68;1.17;;;;;;;4.87;83.56;99145.53;5013693;28;20187;-43
2022/12/21 02:09:07;;;;;;;3.05;0.90;;;;;;;4.84;83.78;99146.22;5014573;28;20045;-43
2022/12/21 02:11:34;;;;;;;7.32;0.70;;;;;;;4.81;83.84;99148.88;5013985;28;20192;-44
2022/12/21 02:14:00;;;;;;;8.10;0.65;;;;;;;4.79;84.02;99148.44;4995031;28;20049;-43
2022/12/21 02:17:13;;;;;;;2.47;0.60;;;;;;;4.79;83.95;99156.66;5010674;28;20071;-48
2022/12/21 02:20:05;;;;;;;2.85;0.73;;;;;;;4.77;84.11;99161.66;5009611;28;20076;-45
2022/12/21 02:22:34;;;;;;;6.43;0.80;;;;;;;4.72;84.01;99143.53;5020558;28;20033;-42
2022/12/21 02:25:25;;;;;;;4.07;1.58;;;;;;;4.70;84.24;99136.78;5044862;28;20060;-43
2022/12/21 02:28:16;;;;;;;1.60;0.80;;;;;;;4.67;84.32;99132.00;5045335;28;20045;-46
2022/12/21 02:30:58;;;;;;;2.97;0.88;;;;;;;4.63;84.37;99123.66;5024779;28;20107;-42
2022/12/21 02:33:41;;;;;;;5.22;0.52;;;;;;;4.59;84.35;99127.44;5045352;28;20526;-42
2022/12/21 02:36:25;;;;;;;2.72;0.77;;;;;;;4.59;84.41;99127.44;5044171;28;20423;-42
2022/12/21 02:38:59;;;;;;;5.93;0.93;;;;;;;4.56;84.38;99136.34;5043720;28;20052;-42
2022/12/21 02:41:47;;;;;;;3.92;0.80;;;;;;;4.55;84.78;99126.53;5044040;28;20068;-42
2022/12/21 02:44:34;;;;;;;2.65;1.13;;;;;;;4.53;84.95;99118.66;5039902;28;20559;-45
2022/12/21 02:47:17;;;;;;;4.43;1.25;;;;;;;4.54;84.79;99124.94;5042440;28;20053;-42
2022/12/21 02:49:58;;;;;;;5.30;1.00;;;;;;;4.52;84.56;99108.84;5045865;28;20379;-42
2022/12/21 02:52:44;;;;;;;4.80;2.23;;;;;;;4.52;84.86;99116.25;5045557;28;20147;-42
2022/12/21 02:55:13;;;;;;;1.85;0.75;;;;;;;4.52;84.94;99110.78;5045957;28;20041;-41
2022/12/21 02:57:42;;;;;;;6.43;1.05;;;;;;;4.51;84.81;99114.66;5046054;28;20520;-42
2022/12/21 03:00:12;;;;;;;5.53;0.60;;;;;;;4.52;84.85;99095.16;5046542;28;20041;-42
2022/12/21 03:03:48;;;;;;;3.78;1.23;;;;;;;4.51;84.79;99115.47;5070062;23;20060;-42
2022/12/21 03:06:49;;;;;;;4.72;0.65;;;;;;;4.51;84.71;99103.69;4955710;28;20130;-43
2022/12/21 03:09:34;;;;;;;5.78;1.20;;;;;;;4.49;84.73;99108.72;5045663;28;20383;-43
2022/12/21 03:12:12;;;;;;;4.85;0.77;;;;;;;4.51;84.90;99109.19;5048001;28;20072;-44
2022/12/21 03:14:49;;;;;;;4.30;0.70;;;;;;;4.53;84.92;99106.88;5049916;28;20051;-50
2022/12/21 03:17:44;;;;;;;2.83;1.00;;;;;;;4.51;84.62;99104.50;5049214;28;20052;-41
2022/12/21 03:20:37;;;;;;;6.55;1.13;;;;;;;4.52;84.66;99108.03;5047382;28;20056;-44
2022/12/21 03:23:27;;;;;;;5.05;0.85;;;;;;;4.51;84.78;99103.69;5047932;28;20080;-44
2022/12/21 03:25:58;;;;;;;10.85;1.02;;;;;;;4.50;84.71;99099.38;5041769;28;20037;-42
2022/12/21 03:28:29;;;;;;;7.22;1.00;;;;;;;4.51;84.77;99101.75;5050310;28;20052;-46
2022/12/21 03:31:02;;;;;;;3.95;1.15;;;;;;;4.52;84.67;99099.81;5047261;28;20106;-42
2022/12/21 03:33:35;;;;;;;16.80;1.92;;;;;;;4.53;84.60;99084.97;5027459;28;20041;-43
2022/12/21 03:36:13;;;;;;;8.07;1.80;;;;;;;4.55;84.36;99099.94;5031436;28;20560;-48
2022/12/21 03:39:04;;;;;;;3.28;0.73;;;;;;;4.58;84.31;99098.44;5039429;28;20045;-43
2022/12/21 03:41:38;;;;;;;9.95;1.48;;;;;;;4.56;84.19;99095.22;5047975;28;20061;-46
2022/12/21 03:44:09;;;;;;;7.90;2.30;;;;;;;4.55;84.51;99082.69;5045372;28;20052;-41
2022/12/21 03:46:49;;;;;;;8.53;1.53;;;;;;;4.55;84.27;99077.22;5047400;28;20052;-41
2022/12/21 03:49:28;;;;;;;7.18;1.02;;;;;;;4.53;84.24;99069.31;5049319;28;20313;-50
2022/12/21 03:51:59;;;;;;;8.27;2.03;;;;;;;4.53;84.28;99083.03;5048870;28;20045;-43
2022/12/21 03:54:30;;;;;;;8.55;0.95;;;;;;;4.54;84.26;99081.09;5044740;28;20041;-41
2022/12/21 03:57:06;;;;;;;3.15;1.13;;;;;;;4.56;84.45;99065.91;5048623;28;20111;-41
2022/12/21 03:59:37;;;;;;;11.25;1.35;;;;;;;4.56;84.24;99059.59;5045961;28;20045;-43
2022/12/21 04:02:16;;;;;;;3.63;1.50;;;;;;;4.58;84.48;99060.09;5033987;28;20403;-50
2022/12/21 04:04:56;;;;;;;9.82;2.05;;;;;;;4.58;84.37;99065.56;5017458;28;20037;-42
2022/12/21 04:07:26;;;;;;;5.90;1.30;;;;;;;4.58;84.13;99065.56;5028439;28;20069;-46
2022/12/21 04:10:00;;;;;;;5.88;1.15;;;;;;;4.59;84.48;99045.22;5028646;28;20053;-49
2022/12/21 04:12:37;;;;;;;9.10;1.15;;;;;;;4.58;84.52;99054.59;5027635;28;20151;-47
2022/12/21 04:15:13;;;;;;;4.82;0.75;;;;;;;4.60;84.30;99050.38;5028786;28;20053;-42
2022/12/21 04:17:42;;;;;;;4.25;1.13;;;;;;;4.62;84.32;99044.53;5019305;28;20505;-46
2022/12/21 04:20:12;;;;;;;6.30;1.10;;;;;;;4.62;84.51;99044.53;5029505;28;20052;-43
2022/12/21 04:28:25;;;;;;;3.17;1.08;;;;;;;4.63;84.30;99048.88;5028004;28;20056;-42
2022/12/21 04:31:11;;;;;;;11.73;1.30;;;;;;;4.61;84.15;99042.91;5021293;28;20122;-41
2022/12/21 04:33:38;;;;;;;9.52;1.35;;;;;;;4.61;84.21;99054.69;5028927;28;20049;-41
2022/12/21 04:38:50;;;;;;;4.18;1.67;;;;;;;4.64;84.41;99047.72;5018460;28;20053;-42
2022/12/21 04:41:17;;;;;;;11.35;1.20;;;;;;;4.65;84.63;99054.81;5028980;28;20050;-41
2022/12/21 04:43:44;;;;;;;3.10;1.00;;;;;;;4.66;84.46;99034.47;5029000;28;20491;-43
2022/12/21 04:46:13;;;;;;;3.65;1.60;;;;;;;4.64;84.36;99064.16;5026856;28;20482;-43
2022/12/21 04:48:41;;;;;;;10.43;1.38;;;;;;;4.64;84.65;99055.94;5026332;28;20646;-42
2022/12/21 04:51:14;;;;;;;18.38;2.47;;;;;;;4.63;84.54;99046.91;5026925;28;20038;-44
2022/12/21 04:53:41;;;;;;;5.97;1.27;;;;;;;4.62;84.50;99055.50;5027735;28;20039;-44
2022/12/21 04:56:08;;;;;;;10.40;1.48;;;;;;;4.60;84.45;99057.78;5026645;28;20119;-42
2022/12/21 04:58:36;;;;;;;4.53;1.30;;;;;;;4.60;84.58;99036.66;5026424;28;20045;-44
2022/12/21 05:01:10;;;;;;;9.20;2.67;;;;;;;4.58;84.60;99055.38;5030211;28;20040;-41
2022/12/21 05:03:38;;;;;;;8.73;1.65;;;;;;;4.58;84.89;99030.72;5036696;28;20564;-43
2022/12/21 05:06:06;;;;;;;15.05;1.63;;;;;;;4.59;84.53;99034.25;5040785;28;20091;-50
2022/12/21 05:08:32;;;;;;;11.25;1.65;;;;;;;4.62;84.68;99039.84;5042800;28;20037;-42
2022/12/21 05:11:14;;;;;;;10.57;2.83;;;;;;;4.64;84.71;99029.34;5032876;28;20044;-42
2022/12/21 05:13:42;;;;;;;9.20;1.45;;;;;;;4.64;84.87;99023.03;5044887;28;20494;-44
2022/12/21 05:16:14;;;;;;;7.50;1.35;;;;;;;4.65;84.98;99027.38;5041061;28;20410;-42
2022/12/21 05:18:42;;;;;;;12.07;2.58;;;;;;;4.66;84.91;99040.72;5040237;28;20467;-42
2022/12/21 05:21:09;;;;;;;8.35;2.80;;;;;;;4.67;84.83;99019.63;5042892;28;20045;-49
2022/12/21 05:23:37;;;;;;;9.98;1.38;;;;;;;4.67;84.95;99028.63;5041294;28;20048;-41
2022/12/21 05:26:05;;;;;;;8.90;1.58;;;;;;;4.70;84.77;99027.16;5047306;28;20369;-41
2022/12/21 05:28:40;;;;;;;16.85;2.80;;;;;;;4.70;84.80;99041.66;5045205;28;20045;-43
2022/12/21 05:31:08;;;;;;;10.73;2.55;;;;;;;4.74;84.55;99033.50;5044736;28;20525;-42
2022/12/21 05:33:35;;;;;;;10.13;1.95;;;;;;;4.77;85.03;99019.13;5041721;28;20041;-45
2022/12/21 05:36:04;;;;;;;8.20;1.30;;;;;;;4.80;84.60;99029.38;5033589;28;20050;-42
2022/12/21 05:38:31;;;;;;;9.07;1.98;;;;;;;4.81;84.52;99015.34;5037805;28;20053;-42
2022/12/21 05:40:58;;;;;;;4.70;1.88;;;;;;;4.82;84.52;99016.13;5046755;28;20121;-42
2022/12/21 05:43:24;;;;;;;16.20;1.90;;;;;;;4.82;84.49;99000.47;5042912;28;20056;-42
2022/12/21 05:45:52;;;;;;;11.13;1.15;;;;;;;4.84;84.47;99014.63;5043267;28;20048;-42
2022/12/21 05:48:20;;;;;;;7.60;1.58;;;;;;;4.85;84.68;99020.91;5039291;28;20041;-42
2022/12/21 05:50:46;;;;;;;8.60;1.98;;;;;;;4.86;84.60;99028.81;5043872;28;20155;-46
2022/12/21 05:53:13;;;;;;;12.98;2.80;;;;;;;4.85;84.60;99023.66;5029284;28;20059;-46
2022/12/21 05:55:44;;;;;;;8.55;1.85;;;;;;;4.84;84.71;99009.13;5047167;28;20156;-42
2022/12/21 05:58:14;;;;;;;8.27;2.63;;;;;;;4.84;84.12;99008.38;5047395;28;20052;-43
2022/12/21 06:00:41;;;;;;;6.88;1.40;;;;;;;4.80;84.37;99021.97;5047029;28;20059;-41
2022/12/21 06:03:08;;;;;;;11.43;1.58;;;;;;;4.78;84.60;99004.28;5040068;28;20063;-43
2022/12/21 06:05:35;;;;;;;8.27;1.65;;;;;;;4.76;84.73;99012.06;5046802;28;20397;-40
2022/12/21 06:08:03;;;;;;;10.75;2.25;;;;;;;4.74;84.98;99000.63;5047254;28;20041;-42
2022/12/21 06:10:29;;;;;;;6.85;1.42;;;;;;;4.74;84.72;99008.84;5045001;28;20143;-47
2022/12/21 06:12:56;;;;;;;8.52;1.85;;;;;;;4.72;84.71;98995.50;5046740;28;20124;-42
2022/12/21 06:15:23;;;;;;;11.45;1.23;;;;;;;4.73;84.88;99010.00;5047164;28;20151;-45
2022/12/21 06:17:50;;;;;;;6.38;1.40;;;;;;;4.73;84.61;99010.81;5047104;28;20119;-42
2022/12/21 06:20:17;;;;;;;5.47;1.30;;;;;;;4.72;84.90;99003.72;5044685;28;20057;-41
2022/12/21 06:22:44;;;;;;;11.02;2.05;;;;;;;4.73;84.72;99001.78;5045375;28;20056;-41
2022/12/21 06:25:11;;;;;;;5.45;1.92;;;;;;;4.73;84.83;99001.78;5044988;28;20060;-42
2022/12/21 06:27:38;;;;;;;14.55;2.05;;;;;;;4.74;84.74;99008.84;5045869;28;20116;-44
2022/12/21 06:30:05;;;;;;;11.70;1.85;;;;;;;4.74;84.77;98998.69;5045195;28;20045;-45
2022/12/21 06:32:32;;;;;;;13.68;1.85;;;;;;;4.74;84.91;99006.09;5045579;28;20041;-43
2022/12/21 06:34:58;;;;;;;9.35;3.30;;;;;;;4.75;84.66;98996.75;5045390;28;20495;-41
2022/12/21 06:37:25;;;;;;;10.95;1.88;;;;;;;4.76;84.92;99012.06;5044619;28;20049;-43
2022/12/21 06:39:51;;;;;;;9.88;1.55;;;;;;;4.81;84.81;99001.63;5044909;28;20067;-50
2022/12/21 06:42:18;;;;;;;11.38;2.05;;;;;;;4.86;84.75;99017.03;5046227;28;20671;-47
2022/12/21 06:44:45;;;;;;;10.88;3.05;;;;;;;4.88;84.70;99017.47;5046012;28;20255;-44
2022/12/21 06:47:12;;;;;;;9.75;2.28;;;;;;;4.90;84.29;99010.50;5045229;28;20041;-45
2022/12/21 06:49:38;;;;;;;16.42;2.20;;;;;;;4.93;84.25;99015.28;5037103;28;20045;-43
2022/12/21 06:52:05;;;;;;;8.30;2.13;;;;;;;4.97;84.33;98992.66;5044974;28;20043;-41
2022/12/21 06:54:32;;;;;;;7.57;2.20;;;;;;;4.99;84.32;99009.53;5045175;28;20057;-41
2022/12/21 06:56:59;;;;;;;14.35;2.20;;;;;;;5.00;84.27;99003.72;5045332;28;20053;-42
2022/12/21 06:59:26;;;;;;;14.57;2.05;;;;;;;5.02;83.99;98992.38;5040578;28;20369;-42
2022/12/21 07:01:52;;;;;;;12.25;1.67;;;;;;;5.04;84.05;99006.53;5024646;28;20049;-42
2022/12/21 07:04:19;;;;;;;8.55;2.53;;;;;;;5.05;83.97;98997.19;5045819;28;20041;-43
2022/12/21 07:06:46;;;;;;;12.30;2.38;;;;;;;5.08;84.07;99001.97;5043566;28;20053;-43
2022/12/21 07:09:13;;;;;;;18.15;3.20;;;;;;;5.08;83.87;98997.28;5044568;28;20418;-43
2022/12/21 07:11:39;;;;;;;14.20;3.30;;;;;;;5.08;84.17;99013.75;5045885;28;20483;-42
2022/12/21 07:14:06;;;;;;;11.65;2.60;;;;;;;5.09;84.04;99012.56;5044825;28;20510;-43
2022/12/21 07:16:33;;;;;;;11.77;2.13;;;;;;;5.09;84.03;99009.81;5044469;28;20053;-44
2022/12/21 07:19:00;;;;;;;8.93;2.03;;;;;;;5.11;84.11;99031.44;5042903;28;20128;-42
2022/12/21 07:21:26;;;;;;;11.68;2.22;;;;;;;5.12;84.10;99024.78;5045782;28;20088;-43
2022/12/21 07:23:54;;;;;;;7.63;2.25;;;;;;;5.13;83.86;99024.44;5042120;28;20044;-43
2022/12/21 07:26:23;;;;;;;11.05;2.15;;;;;;;5.15;83.97;99030.38;5045500;28;20811;-41
2022/12/21 07:28:50;;;;;;;17.20;4.72;;;;;;;5.17;83.89;99025.34;5045010;28;20139;-41
2022/12/21 07:31:21;;;;;;;19.70;2.33;;;;;;;5.18;84.00;99021.44;5043667;28;20155;-43
2022/12/21 07:33:49;;;;;;;5.82;2.10;;;;;;;5.19;83.78;99028.50;5036188;28;20051;-43
2022/12/21 07:36:16;;;;;;;8.68;1.75;;;;;;;5.21;83.75;99034.47;5045076;28;20041;-42
2022/12/21 07:38:43;;;;;;;10.13;2.40;;;;;;;5.23;83.91;99026.69;5035721;28;20052;-43
2022/12/21 07:41:14;;;;;;;13.45;2.30;;;;;;;5.24;83.96;99031.00;5044887;28;20395;-42
2022/12/21 07:43:42;;;;;;;12.27;2.60;;;;;;;5.26;83.74;99038.91;5027737;28;20041;-40
2022/12/21 07:46:09;;;;;;;12.68;3.08;;;;;;;5.25;83.90;99051.81;5046061;28;20056;-43
2022/12/21 07:48:36;;;;;;;13.70;2.42;;;;;;;5.26;83.78;99031.47;5046210;28;20537;-41
2022/12/21 07:51:04;;;;;;;11.38;2.05;;;;;;;5.27;83.65;99032.28;5045645;28;20041;-46
2022/12/21 07:53:31;;;;;;;8.40;1.77;;;;;;;5.27;83.69;99038.53;5027920;28;20073;-42
2022/12/21 07:55:59;;;;;;;13.95;3.33;;;;;;;5.27;83.65;99044.03;5046109;28;20060;-42
2022/12/21 07:58:26;;;;;;;10.00;2.28;;;;;;;5.31;83.74;99042.19;5049238;28;20553;-43
2022/12/21 08:00:53;;;;;;;11.00;2.47;;;;;;;5.35;83.57;99056.78;5049304;28;20102;-43
2022/12/21 08:03:20;;;;;;;9.32;2.78;;;;;;;5.38;83.67;99056.09;5049568;28;20052;-40
2022/12/21 08:05:47;;;;;;;14.32;3.20;;;;;;;5.38;83.49;99058.81;5049401;28;20099;-42
2022/12/21 08:08:14;;;;;;;8.88;2.58;;;;;;;5.37;83.29;99070.16;5048440;28;20128;-41
2022/12/21 08:10:44;;;;;;;19.88;3.58;;;;;;;5.37;83.40;99075.66;5037390;28;20128;-45
2022/12/21 08:13:11;;;;;;;10.15;2.75;;;;;;;5.35;83.45;99076.00;5046374;28;20049;-45
2022/12/21 08:15:38;;;;;;;9.10;2.15;;;;;;;5.36;83.47;99074.03;5045607;28;20572;-47
2022/12/21 08:18:05;;;;;;;14.98;2.35;;;;;;;5.36;83.32;99076.78;5045348;28;20048;-43
2022/12/21 08:20:36;;;;;;;16.80;2.55;;;;;;;5.34;83.51;99093.63;5050454;28;20091;-48
2022/12/21 08:23:03;;;;;;;18.00;2.25;;;;;;;5.33;83.45;99096.69;5049790;28;20049;-42
2022/12/21 08:25:30;;;;;;;11.32;2.85;;;;;;;5.31;83.40;99107.22;5049952;28;20077;-41
2022/12/21 08:27:57;;;;;;;10.57;2.20;;;;;;;5.31;83.45;99105.28;5046418;28;20045;-41
2022/12/21 08:30:24;;;;;;;12.52;2.08;;;;;;;5.30;83.45;99109.16;5050043;28;20048;-43
2022/12/21 08:32:50;;;;;;;13.10;2.13;;;;;;;5.31;83.38;99097.06;5050560;28;20053;-43
2022/12/21 08:35:19;;;;;;;12.80;2.38;;;;;;;5.29;83.53;99096.63;5049059;28;20041;-41
2022/12/21 08:37:45;;;;;;;9.27;1.75;;;;;;;5.31;83.56;99104.50;5031840;28;20418;-44
2022/12/21 08:40:12;;;;;;;9.68;2.35;;;;;;;5.33;83.45;99107.66;5048217;28;20379;-42
2022/12/21 08:42:39;;;;;;;7.85;2.65;;;;;;;5.35;83.42;99110.84;5048397;28;20045;-42
2022/12/21 08:45:06;;;;;;;15.20;2.15;;;;;;;5.35;83.38;99119.88;5048264;28;20049;-43
2022/12/21 08:47:33;;;;;;;10.70;2.03;;;;;;;5.34;83.37;99115.56;5048980;28;20033;-52
2022/12/21 08:49:59;;;;;;;8.48;1.95;;;;;;;5.34;83.38;99123.00;5050090;28;20049;-50
2022/12/21 08:52:27;;;;;;;15.32;1.98;;;;;;;5.34;83.26;99123.81;5048846;28;20052;-44
2022/12/21 08:54:53;;;;;;;15.77;2.40;;;;;;;5.35;83.38;99122.63;5031235;28;20053;-43
2022/12/21 08:57:21;;;;;;;13.02;2.58;;;;;;;5.35;83.24;99125.38;5024467;28;20045;-45
2022/12/21 08:59:47;;;;;;;12.52;2.38;;;;;;;5.37;83.20;99114.88;5047761;28;20044;-46
2022/12/21 09:02:14;;;;;;;6.47;1.70;;;;;;;5.36;83.09;99132.47;5046239;28;20552;-44
2022/12/21 09:04:42;;;;;;;9.73;2.70;;;;;;;5.36;83.28;99135.22;5047848;28;20049;-45
2022/12/21 09:07:08;;;;;;;10.38;3.35;;;;;;;5.34;83.35;99140.28;5045940;28;20044;-43
2022/12/21 09:09:35;;;;;;;11.77;2.47;;;;;;;5.33;83.21;99146.88;5046853;28;20055;-44
2022/12/21 09:12:02;;;;;;;10.70;1.85;;;;;;;5.30;83.32;99139.34;5049543;28;20053;-42
2022/12/21 09:14:29;;;;;;;16.02;2.47;;;;;;;5.27;83.42;99151.03;5031931;28;20414;-43
2022/12/21 09:16:56;;;;;;;8.93;1.83;;;;;;;5.25;83.42;99145.09;5045526;28;20053;-44
2022/12/21 09:19:24;;;;;;;13.85;1.88;;;;;;;5.23;83.50;99146.59;5039681;28;20102;-50
2022/12/21 09:21:51;;;;;;;8.95;1.55;;;;;;;5.21;83.59;99160.66;5049499;28;20044;-43
2022/12/21 09:24:18;;;;;;;11.20;1.92;;;;;;;5.21;83.50;99160.66;5047700;28;20094;-44
2022/12/21 09:26:45;;;;;;;10.75;2.10;;;;;;;5.22;83.47;99178.72;5049236;28;20448;-43
2022/12/21 09:29:12;;;;;;;9.82;2.05;;;;;;;5.24;83.49;99181.13;5045954;28;20037;-45
2022/12/21 09:31:38;;;;;;;14.60;2.05;;;;;;;5.21;83.34;99179.88;5047411;28;20147;-42
2022/12/21 09:34:06;;;;;;;13.25;2.10;;;;;;;5.21;83.51;99177.13;5045695;28;20506;-41
2022/12/21 09:36:33;;;;;;;12.30;2.45;;;;;;;5.19;83.35;99173.91;5027611;28;20053;-43
2022/12/21 09:39:20;;;;;;;14.30;2.45;;;;;;;5.18;83.55;99164.09;5033454;28;20055;-45
2022/12/21 09:41:49;;;;;;;13.68;2.55;;;;;;;5.18;83.38;99171.53;5048971;28;20522;-42
2022/12/21 09:44:30;;;;;;;13.65;1.83;;;;;;;5.18;83.44;99166.84;5046893;28;20037;-46
2022/12/21 09:47:00;;;;;;;9.75;3.08;;;;;;;5.19;83.58;99168.44;5049056;28;20590;-43
2022/12/21 09:49:52;;;;;;;11.15;1.95;;;;;;;5.18;83.34;99166.84;5047695;28;20064;-42
2022/12/21 09:52:29;;;;;;;8.43;1.50;;;;;;;5.18;83.20;99166.84;5041415;28;20052;-48
2022/12/21 09:55:05;;;;;;;9.90;1.70;;;;;;;5.19;83.52;99159.41;5048009;28;20045;-42
2022/12/21 09:57:34;;;;;;;8.65;1.95;;;;;;;5.23;83.55;99169.34;5048138;28;20064;-43
2022/12/21 10:00:12;;;;;;;8.68;2.63;;;;;;;5.26;83.20;99171.41;5049226;28;20057;-44
2022/12/21 10:03:06;;;;;;;16.90;1.92;;;;;;;5.28;83.13;99171.03;5048829;28;20099;-44
2022/12/21 10:06:06;;;;;;;12.10;1.77;;;;;;;5.32;83.20;99167.22;5048371;28;20053;-42
2022/12/21 10:08:42;;;;;;;7.97;2.10;;;;;;;5.34;83.02;99167.72;5040881;28;20053;-44
2022/12/21 10:11:09;;;;;;;9.35;2.50;;;;;;;5.36;83.08;99168.16;5049724;28;20052;-43
2022/12/21 10:13:59;;;;;;;9.38;2.10;;;;;;;5.39;83.05;99167.47;5046298;28;20119;-44
2022/12/21 10:16:33;;;;;;;11.60;2.47;;;;;;;5.45;82.98;99168.00;5047225;28;20041;-41
2022/12/21 10:19:25;;;;;;;12.93;2.45;;;;;;;5.50;82.67;99174.03;5042676;28;20087;-44
2022/12/21 10:22:12;;;;;;;24.07;3.40;;;;;;;5.56;82.74;99169.06;5045110;28;20136;-42
2022/12/21 10:24:47;;;;;;;17.50;4.60;;;;;;;5.58;82.78;99166.81;5047955;28;20044;-46
2022/12/21 10:27:29;;;;;;;10.88;2.22;;;;;;;5.59;82.58;99182.09;5046100;28;20186;-45
2022/12/21 10:29:57;;;;;;;13.98;2.22;;;;;;;5.62;82.52;99169.63;5029663;28;20474;-42
2022/12/21 10:32:30;;;;;;;6.20;2.53;;;;;;;5.66;82.50;99176.03;5044869;28;20060;-47
2022/12/21 10:35:21;;;;;;;10.48;2.45;;;;;;;5.68;82.49;99179.22;5047941;28;20458;-49
2022/12/21 10:37:51;;;;;;;7.75;1.90;;;;;;;5.70;82.48;99185.94;5047929;28;20049;-43
2022/12/21 10:40:21;;;;;;;17.90;2.92;;;;;;;5.74;82.60;99188.81;5035674;28;20045;-43
2022/12/21 10:42:50;;;;;;;11.25;2.25;;;;;;;5.76;82.55;99202.97;5046268;28;20520;-43
2022/12/21 10:45:21;;;;;;;13.00;2.75;;;;;;;5.77;82.48;99188.09;5047220;28;20045;-44
2022/12/21 10:47:53;;;;;;;15.05;2.90;;;;;;;5.80;82.39;99192.91;5040153;28;20048;-44
2022/12/21 10:50:32;;;;;;;14.30;2.38;;;;;;;5.82;82.37;99196.09;5047537;28;20049;-47
2022/12/21 10:53:18;;;;;;;13.60;3.63;;;;;;;5.84;82.28;99194.59;5044363;28;20383;-43
2022/12/21 10:55:45;;;;;;;8.75;2.08;;;;;;;5.87;82.35;99198.59;5045703;28;20501;-43
2022/12/21 10:58:18;;;;;;;13.60;2.92;;;;;;;5.91;82.30;99186.56;5047739;28;20045;-44
2022/12/21 11:00:56;;;;;;;15.20;2.38;;;;;;;5.93;82.03;99186.22;5046900;28;20052;-44
2022/12/21 11:03:30;;;;;;;21.38;3.25;;;;;;;5.95;82.18;99181.97;5039122;28;20099;-44
2022/12/21 11:06:09;;;;;;;9.27;3.05;;;;;;;5.97;82.03;99187.09;5018865;28;20049;-52
2022/12/21 11:08:43;;;;;;;13.95;2.60;;;;;;;5.98;82.20;99194.97;5039793;28;20056;-50
2022/12/21 11:11:25;;;;;;;12.02;2.03;;;;;;;6.01;82.11;99193.50;5025574;28;20044;-45
2022/12/21 11:14:16;;;;;;;16.80;2.83;;;;;;;6.03;82.09;99169.22;5032946;28;20077;-44
2022/12/21 11:16:45;;;;;;;13.85;2.60;;;;;;;6.07;81.92;99181.06;5044126;28;20045;-45
2022/12/21 11:19:14;;;;;;;19.13;2.50;;;;;;;6.10;82.27;99191.38;5043634;28;20506;-45
2022/12/21 11:21:50;;;;;;;12.77;2.75;;;;;;;6.11;82.28;99198.47;5041727;28;20084;-45
2022/12/21 11:24:22;;;;;;;19.75;3.08;;;;;;;6.13;82.22;99185.16;5042147;28;20152;-46
2022/12/21 11:27:03;;;;;;;13.30;2.30;;;;;;;6.14;82.16;99178.53;5046384;28;20488;-45
2022/12/21 11:29:45;;;;;;;18.50;2.00;;;;;;;6.16;82.48;99173.47;5027448;28;20485;-43
2022/12/21 11:32:14;;;;;;;12.13;2.55;;;;;;;6.19;82.18;99178.28;5039612;28;20570;-46
2022/12/21 11:35:06;;;;;;;14.07;2.50;;;;;;;6.22;82.14;99198.75;5042550;28;20076;-44
2022/12/21 11:37:35;;;;;;;10.13;2.63;;;;;;;6.25;82.13;99209.81;5037348;28;20048;-52
2022/12/21 11:40:11;;;;;;;16.17;2.40;;;;;;;6.27;82.17;99196.53;5045032;28;20052;-43
2022/12/21 11:43:00;;;;;;;12.32;2.05;;;;;;;6.28;81.93;99192.63;5047698;28;20045;-44
2022/12/21 11:45:56;;;;;;;11.90;2.25;;;;;;;6.32;81.97;99187.22;5045676;28;20395;-44
2022/12/21 11:49:21;;;;;;;11.27;1.88;;;;;;;6.36;81.76;99182.59;5041402;28;20037;-44
2022/12/21 11:52:25;;;;;;;24.15;2.45;;;;;;;6.39;81.84;99177.19;5047776;28;20053;-43
2022/12/21 11:55:11;;;;;;;14.98;3.00;;;;;;;6.42;81.77;99187.47;5002851;28;20049;-44
2022/12/21 11:58:05;;;;;;;8.95;2.05;;;;;;;6.45;81.63;99192.28;5048120;28;20032;-52
2022/12/21 12:00:52;;;;;;;14.68;2.20;;;;;;;6.49;81.54;99181.34;5050855;28;20328;-53
2022/12/21 12:03:53;;;;;;;11.75;2.72;;;;;;;6.50;81.56;99189.25;5029047;28;20042;-44
2022/12/21 12:06:37;;;;;;;;;;;;;;;6.52;81.21;99188.88;5026772;28;20053;-42
2022/12/21 12:09:22;;;;;;;11.90;2.35;;;;;;;6.55;81.05;99188.97;5011697;28;19928;-43
2022/12/21 12:12:07;;;;;;;7.07;1.92;;;;;;;6.60;81.07;99193.41;5027037;28;20152;-43
2022/12/21 12:14:57;;;;;;;11.73;2.33;;;;;;;6.60;80.94;99183.19;5021432;28;20077;-43